sensor_id;sensor_type;location;lat;lon;timestamp;pressure;altitude;pressure_sealevel;temperature;humidity
51526;BME280;37611;51.794;21.590;2022-07-04T00:02:48;100176.89;;;18.09;97.58
51526;BME280;37611;51.794;21.590;2022-07-04T00:06:50;100171.67;;;18.10;97.53
51526;BME280;37611;51.794;21.590;2022-07-04T00:10:52;100171.71;;;18.11;97.54
51526;BME280;37611;51.794;21.590;2022-07-04T00:14:54;100162.03;;;18.05;97.27
51526;BME280;37611;51.794;21.590;2022-07-04T00:18:56;100155.92;;;18.05;97.56
51526;BME280;37611;51.794;21.590;2022-07-04T00:22:58;100149.34;;;18.05;97.47
51526;BME280;37611;51.794;21.590;2022-07-04T00:27:00;100146.14;;;18.08;97.54
51526;BME280;37611;51.794;21.590;2022-07-04T00:31:02;100145.48;;;18.02;97.43
51526;BME280;37611;51.794;21.590;2022-07-04T00:35:05;100149.67;;;17.94;97.01
51526;BME280;37611;51.794;21.590;2022-07-04T00:39:07;100146.41;;;17.68;96.92
51526;BME280;37611;51.794;21.590;2022-07-04T00:43:08;100141.02;;;17.45;97.82
51526;BME280;37611;51.794;21.590;2022-07-04T00:47:10;100139.23;;;17.39;98.17
51526;BME280;37611;51.794;21.590;2022-07-04T00:51:12;100133.23;;;17.35;98.33
51526;BME280;37611;51.794;21.590;2022-07-04T00:55:15;100135.63;;;17.33;98.56
51526;BME280;37611;51.794;21.590;2022-07-04T00:59:18;100134.16;;;17.28;98.50
51526;BME280;37611;51.794;21.590;2022-07-04T01:03:20;100133.66;;;17.22;98.82
51526;BME280;37611;51.794;21.590;2022-07-04T01:07:22;100133.18;;;17.19;99.10
51526;BME280;37611;51.794;21.590;2022-07-04T01:11:24;100127.04;;;17.17;98.82
51526;BME280;37611;51.794;21.590;2022-07-04T01:15:26;100122.44;;;17.12;98.97
51526;BME280;37611;51.794;21.590;2022-07-04T01:19:28;100121.17;;;17.08;98.99
51526;BME280;37611;51.794;21.590;2022-07-04T01:23:30;100121.23;;;17.05;99.14
51526;BME280;37611;51.794;21.590;2022-07-04T01:27:32;100116.88;;;16.98;98.98
51526;BME280;37611;51.794;21.590;2022-07-04T01:31:34;100115.73;;;16.93;98.99
51526;BME280;37611;51.794;21.590;2022-07-04T01:35:35;100119.51;;;16.95;98.91
51526;BME280;37611;51.794;21.590;2022-07-04T01:39:38;100122.70;;;16.87;98.98
51526;BME280;37611;51.794;21.590;2022-07-04T01:43:40;100122.41;;;16.75;98.70
51526;BME280;37611;51.794;21.590;2022-07-04T01:47:42;100114.89;;;16.55;99.06
51526;BME280;37611;51.794;21.590;2022-07-04T01:51:48;100119.02;;;16.59;99.48
51526;BME280;37611;51.794;21.590;2022-07-04T01:55:50;100121.77;;;16.62;99.14
51526;BME280;37611;51.794;21.590;2022-07-04T01:59:52;100116.01;;;16.61;99.13
51526;BME280;37611;51.794;21.590;2022-07-04T02:04:12;100120.11;;;16.59;98.79
51526;BME280;37611;51.794;21.590;2022-07-04T02:08:14;100117.26;;;16.55;98.77
51526;BME280;37611;51.794;21.590;2022-07-04T02:12:16;100121.00;;;16.48;98.46
51526;BME280;37611;51.794;21.590;2022-07-04T02:16:38;100123.85;;;16.29;98.18
51526;BME280;37611;51.794;21.590;2022-07-04T02:20:40;100115.94;;;16.22;99.18
51526;BME280;37611;51.794;21.590;2022-07-04T02:24:42;100116.34;;;16.21;99.22
51526;BME280;37611;51.794;21.590;2022-07-04T02:28:44;100116.46;;;16.22;99.25
51526;BME280;37611;51.794;21.590;2022-07-04T02:32:49;100119.23;;;16.26;99.17
51526;BME280;37611;51.794;21.590;2022-07-04T02:36:51;100122.90;;;16.31;99.26
51526;BME280;37611;51.794;21.590;2022-07-04T02:40:52;100126.71;;;16.23;98.93
51526;BME280;37611;51.794;21.590;2022-07-04T02:44:54;100124.84;;;16.09;99.34
51526;BME280;37611;51.794;21.590;2022-07-04T02:48:56;100119.68;;;15.98;99.39
51526;BME280;37611;51.794;21.590;2022-07-04T02:52:58;100117.02;;;15.95;99.85
51526;BME280;37611;51.794;21.590;2022-07-04T02:57:00;100114.54;;;16.01;99.93
51526;BME280;37611;51.794;21.590;2022-07-04T03:01:02;100107.75;;;16.09;100.00
51526;BME280;37611;51.794;21.590;2022-07-04T03:05:04;100109.48;;;16.19;100.00
51526;BME280;37611;51.794;21.590;2022-07-04T03:09:06;100110.19;;;16.28;100.00
51526;BME280;37611;51.794;21.590;2022-07-04T03:13:08;100110.16;;;16.37;100.00
51526;BME280;37611;51.794;21.590;2022-07-04T03:17:10;100105.28;;;16.49;99.99
51526;BME280;37611;51.794;21.590;2022-07-04T03:21:12;100108.48;;;16.58;99.96
51526;BME280;37611;51.794;21.590;2022-07-04T03:25:13;100115.14;;;16.64;99.53
51526;BME280;37611;51.794;21.590;2022-07-04T03:29:15;100113.98;;;16.55;99.36
51526;BME280;37611;51.794;21.590;2022-07-04T03:33:18;100113.15;;;16.53;99.64
51526;BME280;37611;51.794;21.590;2022-07-04T03:37:20;100118.48;;;16.73;99.89
51526;BME280;37611;51.794;21.590;2022-07-04T03:41:22;100127.02;;;16.97;99.74
51526;BME280;37611;51.794;21.590;2022-07-04T03:45:24;100122.06;;;17.22;99.70
51526;BME280;37611;51.794;21.590;2022-07-04T03:49:26;100117.23;;;17.44;99.40
51526;BME280;37611;51.794;21.590;2022-07-04T03:53:28;100127.50;;;17.75;99.19
51526;BME280;37611;51.794;21.590;2022-07-04T03:57:30;100131.04;;;18.05;98.92
51526;BME280;37611;51.794;21.590;2022-07-04T04:01:31;100131.05;;;18.33;97.91
51526;BME280;37611;51.794;21.590;2022-07-04T04:05:34;100136.31;;;18.51;97.15
51526;BME280;37611;51.794;21.590;2022-07-04T04:09:35;100135.55;;;18.71;96.79
51526;BME280;37611;51.794;21.590;2022-07-04T04:13:37;100135.90;;;19.13;96.50
51526;BME280;37611;51.794;21.590;2022-07-04T04:17:39;100137.27;;;19.69;96.28
51526;BME280;37611;51.794;21.590;2022-07-04T04:21:40;100138.09;;;20.24;95.05
51526;BME280;37611;51.794;21.590;2022-07-04T04:25:42;100139.88;;;20.90;93.02
51526;BME280;37611;51.794;21.590;2022-07-04T04:29:44;100132.52;;;21.51;91.13
51526;BME280;37611;51.794;21.590;2022-07-04T04:33:46;100125.21;;;22.20;89.96
51526;BME280;37611;51.794;21.590;2022-07-04T04:37:47;100121.70;;;22.76;87.53
51526;BME280;37611;51.794;21.590;2022-07-04T04:41:49;100117.73;;;23.16;85.12
51526;BME280;37611;51.794;21.590;2022-07-04T04:45:51;100114.15;;;23.28;83.58
51526;BME280;37611;51.794;21.590;2022-07-04T04:49:53;100113.08;;;23.10;83.13
51526;BME280;37611;51.794;21.590;2022-07-04T04:53:54;100119.98;;;23.01;82.96
51526;BME280;37611;51.794;21.590;2022-07-04T04:57:56;100120.70;;;22.89;83.30
51526;BME280;37611;51.794;21.590;2022-07-04T05:02:03;100117.92;;;22.93;83.40
51526;BME280;37611;51.794;21.590;2022-07-04T05:06:05;100117.19;;;22.98;83.69
51526;BME280;37611;51.794;21.590;2022-07-04T05:10:08;100114.39;;;23.15;83.22
51526;BME280;37611;51.794;21.590;2022-07-04T05:14:10;100114.63;;;23.26;82.60
51526;BME280;37611;51.794;21.590;2022-07-04T05:18:13;100119.44;;;23.34;81.58
51526;BME280;37611;51.794;21.590;2022-07-04T05:22:15;100119.45;;;23.07;81.79
51526;BME280;37611;51.794;21.590;2022-07-04T05:26:16;100129.30;;;23.07;81.64
51526;BME280;37611;51.794;21.590;2022-07-04T05:30:18;100129.39;;;22.92;82.32
51526;BME280;37611;51.794;21.590;2022-07-04T05:34:20;100130.56;;;22.91;82.61
51526;BME280;37611;51.794;21.590;2022-07-04T05:38:22;100128.65;;;22.80;83.04
51526;BME280;37611;51.794;21.590;2022-07-04T05:42:23;100127.30;;;22.76;83.05
51526;BME280;37611;51.794;21.590;2022-07-04T05:46:25;100129.34;;;22.84;83.61
51526;BME280;37611;51.794;21.590;2022-07-04T05:50:27;100127.80;;;23.02;83.15
51526;BME280;37611;51.794;21.590;2022-07-04T05:54:29;100126.52;;;23.07;83.24
51526;BME280;37611;51.794;21.590;2022-07-04T05:58:31;100124.96;;;23.05;82.80
51526;BME280;37611;51.794;21.590;2022-07-04T06:02:32;100133.83;;;23.10;83.11
51526;BME280;37611;51.794;21.590;2022-07-04T06:06:34;100130.38;;;23.23;82.10
51526;BME280;37611;51.794;21.590;2022-07-04T06:10:36;100137.18;;;23.21;82.15
51526;BME280;37611;51.794;21.590;2022-07-04T06:14:38;100144.01;;;23.35;82.47
51526;BME280;37611;51.794;21.590;2022-07-04T06:18:40;100139.88;;;23.49;81.98
51526;BME280;37611;51.794;21.590;2022-07-04T06:22:47;100142.23;;;23.44;81.06
51526;BME280;37611;51.794;21.590;2022-07-04T06:26:49;100138.41;;;23.18;80.64
51526;BME280;37611;51.794;21.590;2022-07-04T06:30:51;100137.17;;;23.20;80.85
51526;BME280;37611;51.794;21.590;2022-07-04T06:34:53;100136.35;;;23.21;81.63
51526;BME280;37611;51.794;21.590;2022-07-04T06:39:13;100124.27;;;23.60;81.67
51526;BME280;37611;51.794;21.590;2022-07-04T06:43:16;100123.12;;;24.01;79.75
51526;BME280;37611;51.794;21.590;2022-07-04T06:47:17;100115.56;;;23.97;79.08
51526;BME280;37611;51.794;21.590;2022-07-04T06:51:19;100113.25;;;23.83;79.40
51526;BME280;37611;51.794;21.590;2022-07-04T06:55:37;100113.21;;;23.71;79.43
51526;BME280;37611;51.794;21.590;2022-07-04T06:59:39;100112.61;;;23.62;79.87
51526;BME280;37611;51.794;21.590;2022-07-04T07:03:41;100113.95;;;23.81;79.62
51526;BME280;37611;51.794;21.590;2022-07-04T07:07:43;100111.76;;;23.93;78.70
51526;BME280;37611;51.794;21.590;2022-07-04T07:11:45;100108.48;;;23.81;78.28
51526;BME280;37611;51.794;21.590;2022-07-04T07:15:47;100103.66;;;23.65;78.35
51526;BME280;37611;51.794;21.590;2022-07-04T07:19:49;100093.68;;;23.79;76.97
51526;BME280;37611;51.794;21.590;2022-07-04T07:23:50;100095.49;;;23.78;76.30
51526;BME280;37611;51.794;21.590;2022-07-04T07:27:52;100098.29;;;23.81;76.63
51526;BME280;37611;51.794;21.590;2022-07-04T07:31:54;100095.95;;;24.14;76.46
51526;BME280;37611;51.794;21.590;2022-07-04T07:35:56;100098.66;;;24.49;76.50
51526;BME280;37611;51.794;21.590;2022-07-04T07:39:58;100101.86;;;24.81;74.54
51526;BME280;37611;51.794;21.590;2022-07-04T07:43:59;100103.48;;;24.80;73.77
51526;BME280;37611;51.794;21.590;2022-07-04T07:48:02;100104.41;;;24.58;73.25
51526;BME280;37611;51.794;21.590;2022-07-04T07:52:04;100103.80;;;24.54;72.62
51526;BME280;37611;51.794;21.590;2022-07-04T07:56:07;100103.38;;;24.73;71.13
51526;BME280;37611;51.794;21.590;2022-07-04T08:00:09;100102.28;;;24.90;70.98
51526;BME280;37611;51.794;21.590;2022-07-04T08:04:11;100103.89;;;25.03;70.27
51526;BME280;37611;51.794;21.590;2022-07-04T08:08:31;100100.40;;;25.27;68.43
51526;BME280;37611;51.794;21.590;2022-07-04T08:12:33;100100.31;;;25.28;67.92
51526;BME280;37611;51.794;21.590;2022-07-04T08:16:35;100103.16;;;25.17;67.18
51526;BME280;37611;51.794;21.590;2022-07-04T08:20:37;100098.98;;;25.22;67.70
51526;BME280;37611;51.794;21.590;2022-07-04T08:24:39;100100.84;;;25.39;65.90
51526;BME280;37611;51.794;21.590;2022-07-04T08:28:41;100104.69;;;25.44;65.65
51526;BME280;37611;51.794;21.590;2022-07-04T08:32:43;100104.36;;;25.56;66.75
51526;BME280;37611;51.794;21.590;2022-07-04T08:36:44;100103.34;;;25.71;65.84
51526;BME280;37611;51.794;21.590;2022-07-04T08:40:46;100109.65;;;25.83;66.00
51526;BME280;37611;51.794;21.590;2022-07-04T08:44:51;100104.40;;;26.03;65.51
51526;BME280;37611;51.794;21.590;2022-07-04T08:48:55;100099.05;;;26.30;63.74
51526;BME280;37611;51.794;21.590;2022-07-04T08:53:02;100101.60;;;26.33;61.78
51526;BME280;37611;51.794;21.590;2022-07-04T08:57:05;100094.42;;;26.31;62.03
51526;BME280;37611;51.794;21.590;2022-07-04T09:01:26;100092.55;;;26.47;63.60
51526;BME280;37611;51.794;21.590;2022-07-04T09:05:30;100086.64;;;26.64;62.53
51526;BME280;37611;51.794;21.590;2022-07-04T09:09:33;100087.81;;;26.77;61.60
51526;BME280;37611;51.794;21.590;2022-07-04T09:13:36;100094.05;;;26.81;61.72
51526;BME280;37611;51.794;21.590;2022-07-04T09:17:38;100098.66;;;26.70;60.66
51526;BME280;37611;51.794;21.590;2022-07-04T09:21:44;100093.38;;;26.58;59.91
51526;BME280;37611;51.794;21.590;2022-07-04T09:25:47;100090.67;;;26.47;60.68
51526;BME280;37611;51.794;21.590;2022-07-04T09:29:52;100090.73;;;26.38;61.30
51526;BME280;37611;51.794;21.590;2022-07-04T09:34:00;100096.20;;;26.35;61.42
51526;BME280;37611;51.794;21.590;2022-07-04T09:38:04;100097.27;;;26.51;61.32
51526;BME280;37611;51.794;21.590;2022-07-04T09:42:06;100092.92;;;26.63;59.55
51526;BME280;37611;51.794;21.590;2022-07-04T09:46:08;100105.23;;;26.71;59.61
51526;BME280;37611;51.794;21.590;2022-07-04T09:50:17;100104.18;;;26.92;60.10
51526;BME280;37611;51.794;21.590;2022-07-04T09:54:28;100104.42;;;27.09;58.30
51526;BME280;37611;51.794;21.590;2022-07-04T09:58:35;100104.12;;;27.33;58.27
51526;BME280;37611;51.794;21.590;2022-07-04T10:02:37;100101.40;;;27.58;56.92
51526;BME280;37611;51.794;21.590;2022-07-04T10:06:41;100102.86;;;27.76;56.61
51526;BME280;37611;51.794;21.590;2022-07-04T10:10:43;100105.48;;;27.95;56.98
51526;BME280;37611;51.794;21.590;2022-07-04T10:14:46;100106.29;;;28.09;56.61
51526;BME280;37611;51.794;21.590;2022-07-04T10:18:48;100100.73;;;28.09;55.08
51526;BME280;37611;51.794;21.590;2022-07-04T10:22:51;100097.98;;;27.57;54.64
51526;BME280;37611;51.794;21.590;2022-07-04T10:26:53;100103.50;;;27.54;56.03
51526;BME280;37611;51.794;21.590;2022-07-04T10:30:57;100100.32;;;27.75;56.77
51526;BME280;37611;51.794;21.590;2022-07-04T10:34:59;100095.33;;;27.92;55.05
51526;BME280;37611;51.794;21.590;2022-07-04T10:39:03;100082.63;;;28.03;53.76
51526;BME280;37611;51.794;21.590;2022-07-04T10:47:32;100086.02;;;27.75;51.75
51526;BME280;37611;51.794;21.590;2022-07-04T10:51:48;100091.29;;;27.65;52.12
51526;BME280;37611;51.794;21.590;2022-07-04T10:55:51;100081.36;;;27.55;53.12
51526;BME280;37611;51.794;21.590;2022-07-04T11:03:58;100066.64;;;27.67;52.45
51526;BME280;37611;51.794;21.590;2022-07-04T11:08:00;100070.80;;;27.89;52.32
51526;BME280;37611;51.794;21.590;2022-07-04T11:12:05;100069.67;;;28.11;51.39
51526;BME280;37611;51.794;21.590;2022-07-04T11:16:10;100064.33;;;28.31;52.02
51526;BME280;37611;51.794;21.590;2022-07-04T11:20:12;100061.02;;;28.51;51.21
51526;BME280;37611;51.794;21.590;2022-07-04T11:24:14;100054.85;;;28.51;50.84
51526;BME280;37611;51.794;21.590;2022-07-04T11:28:30;100059.95;;;28.36;50.26
51526;BME280;37611;51.794;21.590;2022-07-04T11:32:37;100062.48;;;28.03;49.67
51526;BME280;37611;51.794;21.590;2022-07-04T11:36:43;100052.89;;;27.98;51.38
51526;BME280;37611;51.794;21.590;2022-07-04T11:40:45;100050.38;;;28.02;51.83
51526;BME280;37611;51.794;21.590;2022-07-04T11:45:06;100051.93;;;28.01;51.91
51526;BME280;37611;51.794;21.590;2022-07-04T11:49:10;100048.83;;;28.08;52.64
51526;BME280;37611;51.794;21.590;2022-07-04T11:53:12;100047.07;;;28.22;51.86
51526;BME280;37611;51.794;21.590;2022-07-04T11:57:17;100042.91;;;28.18;51.08
51526;BME280;37611;51.794;21.590;2022-07-04T12:01:29;100035.73;;;28.03;50.53
51526;BME280;37611;51.794;21.590;2022-07-04T12:05:30;100035.02;;;27.95;50.22
51526;BME280;37611;51.794;21.590;2022-07-04T12:09:33;100032.45;;;27.85;50.26
51526;BME280;37611;51.794;21.590;2022-07-04T12:13:36;100029.41;;;27.79;50.69
51526;BME280;37611;51.794;21.590;2022-07-04T12:17:38;100032.61;;;27.75;51.06
51526;BME280;37611;51.794;21.590;2022-07-04T12:21:43;100021.42;;;27.72;51.74
51526;BME280;37611;51.794;21.590;2022-07-04T12:25:47;100020.84;;;27.84;51.19
51526;BME280;37611;51.794;21.590;2022-07-04T12:29:50;100022.77;;;28.01;51.49
51526;BME280;37611;51.794;21.590;2022-07-04T12:33:55;100021.15;;;28.03;50.69
51526;BME280;37611;51.794;21.590;2022-07-04T12:42:15;100017.31;;;27.98;50.78
51526;BME280;37611;51.794;21.590;2022-07-04T12:50:26;100012.16;;;27.93;49.24
51526;BME280;37611;51.794;21.590;2022-07-04T12:54:28;100002.01;;;27.87;49.87
51526;BME280;37611;51.794;21.590;2022-07-04T12:58:30;100004.13;;;27.94;50.05
51526;BME280;37611;51.794;21.590;2022-07-04T13:02:32;100012.46;;;28.02;50.52
51526;BME280;37611;51.794;21.590;2022-07-04T13:06:34;100011.69;;;27.98;50.64
51526;BME280;37611;51.794;21.590;2022-07-04T13:10:36;100022.88;;;28.02;50.90
51526;BME280;37611;51.794;21.590;2022-07-04T13:14:38;100012.73;;;28.08;49.91
51526;BME280;37611;51.794;21.590;2022-07-04T13:18:40;100013.29;;;28.15;49.63
51526;BME280;37611;51.794;21.590;2022-07-04T13:22:41;100001.96;;;28.21;49.35
51526;BME280;37611;51.794;21.590;2022-07-04T13:26:43;100004.05;;;28.19;48.79
51526;BME280;37611;51.794;21.590;2022-07-04T13:30:45;100002.27;;;28.12;48.67
51526;BME280;37611;51.794;21.590;2022-07-04T13:34:47;100003.44;;;28.03;48.82
51526;BME280;37611;51.794;21.590;2022-07-04T13:38:48;100005.27;;;28.01;49.89
51526;BME280;37611;51.794;21.590;2022-07-04T13:42:50;100003.90;;;27.90;50.47
51526;BME280;37611;51.794;21.590;2022-07-04T13:47:01;100011.86;;;27.80;51.05
51526;BME280;37611;51.794;21.590;2022-07-04T13:51:02;100012.36;;;27.78;52.06
51526;BME280;37611;51.794;21.590;2022-07-04T13:55:05;100013.28;;;27.84;51.74
51526;BME280;37611;51.794;21.590;2022-07-04T13:59:07;100011.50;;;27.86;52.10
51526;BME280;37611;51.794;21.590;2022-07-04T14:03:08;100005.79;;;27.87;52.02
51526;BME280;37611;51.794;21.590;2022-07-04T14:07:10;100006.20;;;27.85;51.87
51526;BME280;37611;51.794;21.590;2022-07-04T14:11:12;100005.33;;;27.85;52.20
51526;BME280;37611;51.794;21.590;2022-07-04T14:15:14;100005.73;;;27.87;52.68
51526;BME280;37611;51.794;21.590;2022-07-04T14:19:16;99994.36;;;27.91;52.26
51526;BME280;37611;51.794;21.590;2022-07-04T14:23:18;99980.48;;;27.93;50.38
51526;BME280;37611;51.794;21.590;2022-07-04T14:27:40;99980.80;;;27.88;51.21
51526;BME280;37611;51.794;21.590;2022-07-04T14:31:42;99976.84;;;27.88;51.30
51526;BME280;37611;51.794;21.590;2022-07-04T14:35:43;99986.08;;;27.82;51.90
51526;BME280;37611;51.794;21.590;2022-07-04T14:39:45;99988.03;;;27.74;51.31
51526;BME280;37611;51.794;21.590;2022-07-04T14:43:47;99985.85;;;27.56;52.12
51526;BME280;37611;51.794;21.590;2022-07-04T14:47:49;99985.98;;;27.51;51.44
51526;BME280;37611;51.794;21.590;2022-07-04T14:51:50;99985.19;;;27.53;51.07
51526;BME280;37611;51.794;21.590;2022-07-04T14:55:54;99984.21;;;27.52;51.52
51526;BME280;37611;51.794;21.590;2022-07-04T14:59:56;99991.44;;;27.47;51.42
51526;BME280;37611;51.794;21.590;2022-07-04T15:03:58;99993.41;;;27.43;53.02
51526;BME280;37611;51.794;21.590;2022-07-04T15:07:59;99998.15;;;27.40;52.43
51526;BME280;37611;51.794;21.590;2022-07-04T15:12:01;99999.11;;;27.38;52.01
51526;BME280;37611;51.794;21.590;2022-07-04T15:16:03;100001.77;;;27.40;51.46
51526;BME280;37611;51.794;21.590;2022-07-04T15:20:06;100000.77;;;27.37;51.85
51526;BME280;37611;51.794;21.590;2022-07-04T15:24:26;100000.88;;;27.36;51.56
51526;BME280;37611;51.794;21.590;2022-07-04T15:28:28;99998.86;;;27.31;51.92
51526;BME280;37611;51.794;21.590;2022-07-04T15:32:30;99988.55;;;27.30;51.80
51526;BME280;37611;51.794;21.590;2022-07-04T15:36:31;99982.16;;;27.26;51.75
51526;BME280;37611;51.794;21.590;2022-07-04T15:40:33;99985.77;;;27.23;50.36
51526;BME280;37611;51.794;21.590;2022-07-04T15:44:35;99981.90;;;27.15;50.73
51526;BME280;37611;51.794;21.590;2022-07-04T15:48:37;99981.29;;;27.06;51.42
51526;BME280;37611;51.794;21.590;2022-07-04T15:52:39;99988.14;;;26.98;51.85
51526;BME280;37611;51.794;21.590;2022-07-04T15:56:40;99989.78;;;26.94;51.83
51526;BME280;37611;51.794;21.590;2022-07-04T16:00:42;99987.89;;;26.85;52.04
51526;BME280;37611;51.794;21.590;2022-07-04T16:04:44;99992.80;;;26.75;51.98
51526;BME280;37611;51.794;21.590;2022-07-04T16:08:46;99993.79;;;26.66;52.42
51526;BME280;37611;51.794;21.590;2022-07-04T16:12:47;99989.12;;;26.60;52.18
51526;BME280;37611;51.794;21.590;2022-07-04T16:16:49;99993.67;;;26.56;52.31
51526;BME280;37611;51.794;21.590;2022-07-04T16:20:51;99991.25;;;26.50;52.96
51526;BME280;37611;51.794;21.590;2022-07-04T16:24:53;99989.63;;;26.38;52.93
51526;BME280;37611;51.794;21.590;2022-07-04T16:28:54;100002.13;;;26.27;53.39
51526;BME280;37611;51.794;21.590;2022-07-04T16:32:56;100003.63;;;26.20;54.17
51526;BME280;37611;51.794;21.590;2022-07-04T16:36:58;99998.31;;;26.16;54.49
51526;BME280;37611;51.794;21.590;2022-07-04T16:41:00;99994.42;;;26.11;54.74
51526;BME280;37611;51.794;21.590;2022-07-04T16:45:02;99988.39;;;26.03;55.26
51526;BME280;37611;51.794;21.590;2022-07-04T16:49:03;99988.43;;;25.97;55.58
51526;BME280;37611;51.794;21.590;2022-07-04T16:53:06;99980.13;;;25.90;55.71
51526;BME280;37611;51.794;21.590;2022-07-04T16:57:08;99975.11;;;25.83;56.15
51526;BME280;37611;51.794;21.590;2022-07-04T17:01:10;99966.95;;;25.80;55.91
51526;BME280;37611;51.794;21.590;2022-07-04T17:05:13;99966.69;;;25.77;56.29
51526;BME280;37611;51.794;21.590;2022-07-04T17:09:14;99965.34;;;25.75;55.78
51526;BME280;37611;51.794;21.590;2022-07-04T17:13:16;99961.58;;;25.69;55.81
51526;BME280;37611;51.794;21.590;2022-07-04T17:17:18;99956.55;;;25.63;55.92
51526;BME280;37611;51.794;21.590;2022-07-04T17:21:22;99957.83;;;25.56;56.72
51526;BME280;37611;51.794;21.590;2022-07-04T17:25:25;99958.80;;;25.47;57.68
51526;BME280;37611;51.794;21.590;2022-07-04T17:29:26;99961.78;;;25.36;58.59
51526;BME280;37611;51.794;21.590;2022-07-04T17:33:28;99956.86;;;25.25;59.28
51526;BME280;37611;51.794;21.590;2022-07-04T17:37:30;99958.06;;;25.14;59.95
51526;BME280;37611;51.794;21.590;2022-07-04T17:41:32;99953.20;;;25.02;60.43
51526;BME280;37611;51.794;21.590;2022-07-04T17:45:52;99953.77;;;24.88;60.64
51526;BME280;37611;51.794;21.590;2022-07-04T17:49:54;99953.90;;;24.75;61.19
51526;BME280;37611;51.794;21.590;2022-07-04T17:53:56;99953.98;;;24.62;61.84
51526;BME280;37611;51.794;21.590;2022-07-04T17:57:57;99947.41;;;24.48;62.93
51526;BME280;37611;51.794;21.590;2022-07-04T18:01:59;99949.08;;;24.35;63.64
51526;BME280;37611;51.794;21.590;2022-07-04T18:06:01;99959.48;;;24.17;63.90
51526;BME280;37611;51.794;21.590;2022-07-04T18:10:03;99959.62;;;23.96;64.76
51526;BME280;37611;51.794;21.590;2022-07-04T18:14:05;99963.85;;;23.87;65.54
51526;BME280;37611;51.794;21.590;2022-07-04T18:18:06;99961.39;;;23.73;66.45
51526;BME280;37611;51.794;21.590;2022-07-04T18:22:08;99963.46;;;23.59;66.54
51526;BME280;37611;51.794;21.590;2022-07-04T18:26:10;99955.97;;;23.46;66.72
51526;BME280;37611;51.794;21.590;2022-07-04T18:30:14;99958.05;;;23.33;67.21
51526;BME280;37611;51.794;21.590;2022-07-04T18:34:16;99961.95;;;23.22;67.81
51526;BME280;37611;51.794;21.590;2022-07-04T18:38:18;99969.55;;;23.12;68.75
51526;BME280;37611;51.794;21.590;2022-07-04T18:42:21;99972.96;;;22.98;69.34
51526;BME280;37611;51.794;21.590;2022-07-04T18:46:41;99979.33;;;22.78;69.23
51526;BME280;37611;51.794;21.590;2022-07-04T18:50:43;99981.92;;;22.56;69.88
51526;BME280;37611;51.794;21.590;2022-07-04T18:54:45;99992.75;;;22.27;71.16
51526;BME280;37611;51.794;21.590;2022-07-04T18:58:47;99996.96;;;22.14;71.57
51526;BME280;37611;51.794;21.590;2022-07-04T19:02:50;99999.23;;;22.09;72.03
51526;BME280;37611;51.794;21.590;2022-07-04T19:06:51;99999.65;;;22.03;72.45
51526;BME280;37611;51.794;21.590;2022-07-04T19:10:53;99997.71;;;21.92;73.27
51526;BME280;37611;51.794;21.590;2022-07-04T19:14:55;100003.70;;;21.86;73.32
51526;BME280;37611;51.794;21.590;2022-07-04T19:18:57;100007.55;;;21.82;73.66
51526;BME280;37611;51.794;21.590;2022-07-04T19:22:58;100008.89;;;21.76;73.70
51526;BME280;37611;51.794;21.590;2022-07-04T19:27:00;100006.37;;;21.73;74.86
51526;BME280;37611;51.794;21.590;2022-07-04T19:31:02;100007.40;;;21.71;75.11
51526;BME280;37611;51.794;21.590;2022-07-04T19:35:07;100007.08;;;21.69;75.76
51526;BME280;37611;51.794;21.590;2022-07-04T19:39:10;100007.71;;;21.65;76.16
51526;BME280;37611;51.794;21.590;2022-07-04T19:43:12;100006.28;;;21.50;76.24
51526;BME280;37611;51.794;21.590;2022-07-04T19:47:15;100009.84;;;21.32;76.97
51526;BME280;37611;51.794;21.590;2022-07-04T19:51:20;100010.00;;;21.23;77.05
51526;BME280;37611;51.794;21.590;2022-07-04T19:55:22;100009.55;;;21.17;77.69
51526;BME280;37611;51.794;21.590;2022-07-04T19:59:24;100012.25;;;21.13;77.83
51526;BME280;37611;51.794;21.590;2022-07-04T20:03:26;100018.39;;;21.10;78.06
51526;BME280;37611;51.794;21.590;2022-07-04T20:07:27;100016.84;;;20.97;78.44
51526;BME280;37611;51.794;21.590;2022-07-04T20:11:29;100014.73;;;20.91;78.69
51526;BME280;37611;51.794;21.590;2022-07-04T20:15:31;100018.45;;;20.87;78.99
51526;BME280;37611;51.794;21.590;2022-07-04T20:19:33;100019.93;;;20.81;79.41
51526;BME280;37611;51.794;21.590;2022-07-04T20:23:35;100024.43;;;20.74;79.70
51526;BME280;37611;51.794;21.590;2022-07-04T20:27:36;100024.65;;;20.67;79.91
51526;BME280;37611;51.794;21.590;2022-07-04T20:31:38;100022.86;;;20.60;80.12
51526;BME280;37611;51.794;21.590;2022-07-04T20:35:40;100022.27;;;20.49;80.19
51526;BME280;37611;51.794;21.590;2022-07-04T20:39:42;100021.98;;;20.39;80.47
51526;BME280;37611;51.794;21.590;2022-07-04T20:43:44;100018.11;;;20.24;81.09
51526;BME280;37611;51.794;21.590;2022-07-04T20:47:46;100028.39;;;20.19;81.55
51526;BME280;37611;51.794;21.590;2022-07-04T20:51:48;100030.84;;;20.14;81.76
51526;BME280;37611;51.794;21.590;2022-07-04T20:55:49;100033.90;;;20.10;81.55
51526;BME280;37611;51.794;21.590;2022-07-04T20:59:51;100033.48;;;20.03;81.97
51526;BME280;37611;51.794;21.590;2022-07-04T21:03:53;100034.12;;;19.99;82.48
51526;BME280;37611;51.794;21.590;2022-07-04T21:07:55;100037.48;;;19.97;83.17
51526;BME280;37611;51.794;21.590;2022-07-04T21:11:57;100034.40;;;19.91;83.06
51526;BME280;37611;51.794;21.590;2022-07-04T21:15:59;100039.19;;;19.86;83.30